createdAt,value
2022-10-05T00:03:39.295Z,101332.28
2022-10-05T00:08:41.981Z,101342.88
2022-10-05T00:13:44.714Z,101343.75
2022-10-05T00:18:50.829Z,101350.06
2022-10-05T00:23:56.391Z,101332.56
2022-10-05T00:28:59.392Z,101343.41
2022-10-05T00:34:02.376Z,101338.84
2022-10-05T00:39:05.258Z,101348.13
2022-10-05T00:44:17.143Z,101338.06
2022-10-05T00:49:33.396Z,101337.28
2022-10-05T00:54:44.742Z,101334.84
2022-10-05T01:00:05.872Z,101336.56
2022-10-05T01:05:14.612Z,101333.25
2022-10-05T01:10:20.185Z,101321.34
2022-10-05T01:15:28.699Z,101304.72
2022-10-05T01:20:39.998Z,101315.13
2022-10-05T01:25:50.279Z,101310.56
2022-10-05T01:31:09.130Z,101314.88
2022-10-05T01:36:17.536Z,101320.81
2022-10-05T01:41:41.733Z,101327.47
2022-10-05T01:47:03.592Z,101328.88
2022-10-05T01:52:09.263Z,101348.22
2022-10-05T01:57:14.819Z,101354.28
2022-10-05T02:02:19.671Z,101350.78
2022-10-05T02:07:37.576Z,101334.72
2022-10-05T02:12:40.895Z,101337.41
2022-10-05T02:17:49.400Z,101350.56
2022-10-05T02:22:56.711Z,101326.84
2022-10-05T02:28:14.049Z,101349.31
2022-10-05T02:33:32.758Z,101349.06
2022-10-05T02:38:54.596Z,101341.13
2022-10-05T02:44:00.389Z,101353.00
2022-10-05T02:49:32.534Z,101350.81
2022-10-05T02:54:47.564Z,101359.13
2022-10-05T03:00:01.410Z,101333.91
2022-10-05T03:05:15.597Z,101363.59
2022-10-05T03:10:42.053Z,101360.41
2022-10-05T03:16:02.107Z,101361.06
2022-10-05T03:21:27.806Z,101357.69
2022-10-05T03:26:53.170Z,101349.63
2022-10-05T03:32:14.381Z,101360.78
2022-10-05T03:37:39.836Z,101364.22
2022-10-05T03:42:48.509Z,101348.38
2022-10-05T03:48:05.864Z,101340.06
2022-10-05T03:53:21.679Z,101352.06
2022-10-05T03:58:33.945Z,101350.19
2022-10-05T04:03:44.545Z,101345.25
2022-10-05T04:08:55.551Z,101341.75
2022-10-05T04:14:23.554Z,101351.72
2022-10-05T04:19:33.229Z,101356.53
2022-10-05T04:24:41.262Z,101359.56
2022-10-05T04:29:51.949Z,101361.84
2022-10-05T04:35:28.753Z,101356.25
2022-10-05T04:40:49.823Z,101354.88
2022-10-05T04:46:04.524Z,101340.78
2022-10-05T04:51:19.967Z,101342.47
2022-10-05T04:56:30.748Z,101358.97
2022-10-05T05:02:07.865Z,101359.41
2022-10-05T05:07:45.474Z,101354.44
2022-10-05T05:12:59.762Z,101343.00
2022-10-05T05:18:26.888Z,101334.00
2022-10-05T05:23:43.142Z,101326.81
2022-10-05T05:29:02.327Z,101334.00
2022-10-05T05:34:17.262Z,101345.56
2022-10-05T05:39:28.722Z,101340.72
2022-10-05T05:44:39.015Z,101344.94
2022-10-05T05:49:52.164Z,101338.53
2022-10-05T05:55:14.114Z,101338.91
2022-10-05T06:00:22.334Z,101352.00
2022-10-05T06:06:02.777Z,101350.69
2022-10-05T06:11:23.511Z,101345.84
2022-10-05T06:16:41.434Z,101341.03
2022-10-05T06:22:17.672Z,101332.88
2022-10-05T06:27:21.265Z,101344.44
2022-10-05T06:32:36.846Z,101332.00
2022-10-05T06:37:58.558Z,101338.50
2022-10-05T06:43:36.068Z,101331.50
2022-10-05T06:49:29.805Z,101335.19
2022-10-05T06:55:20.651Z,101333.97
2022-10-05T07:00:40.842Z,101331.94
2022-10-05T07:06:00.481Z,101332.91
2022-10-05T07:11:36.389Z,101335.78
2022-10-05T07:17:08.139Z,101333.41
2022-10-05T07:22:52.593Z,101348.94
2022-10-05T07:28:01.364Z,101349.88
2022-10-05T07:33:14.392Z,101350.94
2022-10-05T07:38:22.196Z,101352.94
2022-10-05T07:44:01.145Z,101354.63
2022-10-05T07:49:32.088Z,101360.38
2022-10-05T07:55:10.370Z,101360.97
2022-10-05T08:00:20.789Z,101357.31
2022-10-05T08:05:30.525Z,101362.28
2022-10-05T08:10:55.640Z,101361.22
2022-10-05T08:15:58.665Z,101360.59
2022-10-05T08:21:01.722Z,101351.06
2022-10-05T08:26:25.170Z,101366.13
2022-10-05T08:31:32.129Z,101371.03
2022-10-05T08:36:40.951Z,101363.66
2022-10-05T08:42:05.036Z,101371.72
2022-10-05T08:47:49.606Z,101379.25
2022-10-05T08:53:32.160Z,101379.44
2022-10-05T08:58:54.629Z,101380.91
2022-10-05T09:04:20.638Z,101378.31
2022-10-05T09:09:29.355Z,101369.03
2022-10-05T09:15:01.504Z,101368.25
2022-10-05T09:20:47.372Z,101383.63
2022-10-05T09:26:30.580Z,101389.28
2022-10-05T09:32:05.771Z,101381.34
2022-10-05T09:37:41.094Z,101381.09
2022-10-05T09:43:11.565Z,101371.72
2022-10-05T09:48:41.245Z,101383.13
2022-10-05T09:54:02.628Z,101389.47
2022-10-05T09:59:23.335Z,101391.75
2022-10-05T10:05:26.114Z,101377.06
2022-10-05T10:11:02.343Z,101400.53
2022-10-05T10:16:46.061Z,101382.59
2022-10-05T10:21:50.126Z,101420.50
2022-10-05T10:27:16.911Z,101418.41
2022-10-05T10:32:47.321Z,101416.75
2022-10-05T10:38:05.436Z,101428.66
2022-10-05T10:43:26.934Z,101432.75
2022-10-05T10:48:29.501Z,101430.41
2022-10-05T10:53:50.553Z,101438.91
2022-10-05T10:59:11.860Z,101442.22
2022-10-05T11:04:54.241Z,101433.38
2022-10-05T11:10:00.155Z,101451.22
2022-10-05T11:15:40.040Z,101448.78
2022-10-05T11:20:48.624Z,101460.69
2022-10-05T11:26:12.905Z,101462.44
2022-10-05T11:31:31.646Z,101461.66
2022-10-05T11:37:11.980Z,101471.16
2022-10-05T11:42:45.547Z,101468.00
2022-10-05T11:48:17.324Z,101480.16
2022-10-05T11:53:27.455Z,101490.13
2022-10-05T11:58:42.303Z,101494.81
2022-10-05T12:04:14.640Z,101504.66
2022-10-05T12:09:20.313Z,101514.63
2022-10-05T12:14:34.386Z,101527.38
2022-10-05T12:19:41.554Z,101521.63
2022-10-05T12:25:06.634Z,101524.75
2022-10-05T12:30:12.079Z,101544.91
2022-10-05T12:35:53.784Z,101535.66
2022-10-05T12:41:18.243Z,101549.88
2022-10-05T12:46:42.287Z,101554.31
2022-10-05T12:51:56.602Z,101562.34
2022-10-05T12:57:38.566Z,101568.31
2022-10-05T13:02:49.363Z,101564.22
2022-10-05T13:08:18.307Z,101572.13
2022-10-05T13:13:53.656Z,101581.19
2022-10-05T13:19:21.075Z,101584.44
2022-10-05T13:24:32.085Z,101549.16
2022-10-05T13:29:58.957Z,101593.91
2022-10-05T13:35:35.575Z,101596.34
2022-10-05T13:40:47.099Z,101597.09
2022-10-05T13:45:57.268Z,101598.09
2022-10-05T13:51:00.197Z,101602.59
2022-10-05T13:56:23.108Z,101611.06
2022-10-05T14:01:51.969Z,101614.41
2022-10-05T14:06:54.795Z,101615.53
2022-10-05T14:12:03.743Z,101609.88
2022-10-05T14:17:33.799Z,101585.16
2022-10-05T14:22:42.549Z,101604.03
2022-10-05T14:28:04.692Z,101622.47
2022-10-05T14:33:15.646Z,101633.28
2022-10-05T14:38:32.701Z,101633.19
2022-10-05T14:43:35.978Z,101636.25
2022-10-05T14:48:42.815Z,101652.75
2022-10-05T14:53:49.359Z,101648.00
2022-10-05T14:59:14.678Z,101654.81
2022-10-05T15:04:53.192Z,101653.44
2022-10-05T15:10:57.623Z,101651.84
2022-10-05T15:16:00.267Z,101644.69
2022-10-05T15:21:21.962Z,101644.69
2022-10-05T15:27:10.535Z,101643.44
2022-10-05T15:32:31.650Z,101647.06
2022-10-05T15:37:43.069Z,101658.94
2022-10-05T15:42:45.688Z,101661.41
2022-10-05T15:48:20.525Z,101639.88
2022-10-05T15:53:35.014Z,101658.75
2022-10-05T15:58:56.227Z,101665.28
2022-10-05T16:04:18.798Z,101669.56
2022-10-05T16:09:56.842Z,101668.44
2022-10-05T16:15:16.683Z,101661.44
2022-10-05T16:20:36.097Z,101670.75
2022-10-05T16:25:47.704Z,101666.66
2022-10-05T16:30:50.375Z,101673.34
2022-10-05T16:36:16.587Z,101656.00
2022-10-05T16:41:43.316Z,101670.19
2022-10-05T16:46:47.181Z,101677.88
2022-10-05T16:52:05.370Z,101675.88
2022-10-05T16:57:28.802Z,101674.41
2022-10-05T17:02:41.950Z,101674.91
2022-10-05T17:07:47.616Z,101669.09
2022-10-05T17:12:59.465Z,101670.75
2022-10-05T17:18:20.332Z,101671.63
2022-10-05T17:23:31.627Z,101671.25
2022-10-05T17:28:42.636Z,101662.69
2022-10-05T17:34:00.472Z,101666.81
2022-10-05T17:39:49.506Z,101667.34
2022-10-05T17:44:58.755Z,101657.13
2022-10-05T17:50:19.773Z,101656.63
2022-10-05T17:55:39.707Z,101654.22
2022-10-05T18:01:03.097Z,101661.03
2022-10-05T18:06:24.703Z,101655.09
2022-10-05T18:11:35.696Z,101650.03
2022-10-05T18:17:00.447Z,101635.94
2022-10-05T18:22:05.348Z,101633.78
2022-10-05T18:27:26.410Z,101621.16
2022-10-05T18:32:53.935Z,101633.16
2022-10-05T18:38:33.141Z,101630.00
2022-10-05T18:43:42.930Z,101634.53
2022-10-05T18:48:50.193Z,101644.13
2022-10-05T18:54:18.815Z,101633.06
2022-10-05T18:59:40.219Z,101628.69
2022-10-05T19:10:56.139Z,101634.38
2022-10-05T19:16:18.965Z,101633.47
2022-10-05T19:21:59.249Z,101629.22
2022-10-05T19:27:14.044Z,101632.59
2022-10-05T19:32:58.351Z,101640.00
2022-10-05T19:38:16.224Z,101627.66
2022-10-05T19:43:46.787Z,101629.72
2022-10-05T19:48:51.095Z,101631.75
2022-10-05T19:53:56.335Z,101626.78
2022-10-05T19:59:11.477Z,101622.41
2022-10-05T20:04:34.574Z,101629.56
2022-10-05T20:10:00.805Z,101633.75
2022-10-05T20:15:26.856Z,101634.88
2022-10-05T20:20:36.563Z,101640.53
2022-10-05T20:25:40.654Z,101628.56
2022-10-05T20:30:43.298Z,101626.16
2022-10-05T20:35:46.274Z,101624.00
2022-10-05T20:40:48.968Z,101630.16
2022-10-05T20:45:54.102Z,101627.72
2022-10-05T20:50:56.576Z,101634.22
2022-10-05T20:56:02.751Z,101627.69
2022-10-05T21:01:20.799Z,101626.38
2022-10-05T21:06:27.870Z,101615.47
2022-10-05T21:11:30.737Z,101631.69
2022-10-05T21:16:37.096Z,101586.13
2022-10-05T21:21:40.615Z,101624.63
2022-10-05T21:26:44.672Z,101631.66
2022-10-05T21:31:47.514Z,101600.91
2022-10-05T21:36:50.299Z,101637.19
2022-10-05T21:41:53.231Z,101614.31
2022-10-05T21:46:56.944Z,101625.94
2022-10-05T21:52:00.947Z,101591.13
2022-10-05T21:57:03.821Z,101617.75
2022-10-05T22:02:06.617Z,101606.06
2022-10-05T22:07:20.077Z,101622.16
2022-10-05T22:12:23.926Z,101601.66
2022-10-05T22:17:31.423Z,101619.13
2022-10-05T22:22:34.163Z,101621.28
2022-10-05T22:27:37.270Z,101618.50
2022-10-05T22:32:39.987Z,101612.72
2022-10-05T22:37:42.646Z,101625.53
2022-10-05T22:42:45.254Z,101607.41
2022-10-05T22:47:48.437Z,101607.41
2022-10-05T22:52:52.799Z,101607.72
2022-10-05T22:57:55.747Z,101611.59
2022-10-05T23:02:58.554Z,101606.72
2022-10-05T23:08:02.667Z,101593.66
2022-10-05T23:13:05.350Z,101596.06
2022-10-05T23:18:08.074Z,101605.97
2022-10-05T23:23:11.237Z,101600.56
2022-10-05T23:28:14.016Z,101595.59
2022-10-05T23:33:16.805Z,101590.41
2022-10-05T23:38:19.460Z,101578.50
2022-10-05T23:43:22.806Z,101567.16
2022-10-05T23:48:27.197Z,101580.84
2022-10-05T23:53:30.155Z,101583.03
2022-10-05T23:58:32.932Z,101613.41
